sensor_id;sensor_type;location;lat;lon;timestamp;P1;durP1;ratioP1;P2;durP2;ratioP2
77821;SDS011;67012;53.712;10.728;2023-04-25T07:14:54;4.80;;;1.77;;
77821;SDS011;67012;53.712;10.728;2023-04-25T07:17:19;11.90;;;1.93;;
77821;SDS011;67012;53.712;10.728;2023-04-25T07:19:45;9.00;;;1.73;;
77821;SDS011;67012;53.712;10.728;2023-04-25T07:22:10;11.57;;;1.60;;
77821;SDS011;67012;53.712;10.728;2023-04-25T07:24:35;9.43;;;2.30;;
77821;SDS011;67012;53.712;10.728;2023-04-25T07:27:00;9.07;;;1.80;;
77821;SDS011;67012;53.712;10.728;2023-04-25T07:29:26;4.07;;;1.52;;
77821;SDS011;67012;53.712;10.728;2023-04-25T07:31:51;8.75;;;1.73;;
77821;SDS011;67012;53.712;10.728;2023-04-25T07:34:16;4.33;;;1.20;;
77821;SDS011;67012;53.712;10.728;2023-04-25T07:36:42;6.83;;;1.93;;
77821;SDS011;67012;53.712;10.728;2023-04-25T07:39:07;6.77;;;1.50;;
77821;SDS011;67012;53.712;10.728;2023-04-25T07:41:34;12.32;;;2.30;;
77821;SDS011;67012;53.712;10.728;2023-04-25T07:43:59;7.63;;;1.52;;
77821;SDS011;67012;53.712;10.728;2023-04-25T07:46:25;7.18;;;1.63;;
77821;SDS011;67012;53.712;10.728;2023-04-25T07:48:50;13.50;;;2.20;;
77821;SDS011;67012;53.712;10.728;2023-04-25T07:51:15;5.37;;;1.67;;
77821;SDS011;67012;53.712;10.728;2023-04-25T07:53:40;6.57;;;2.03;;
77821;SDS011;67012;53.712;10.728;2023-04-25T07:56:06;9.03;;;2.30;;
77821;SDS011;67012;53.712;10.728;2023-04-25T07:58:31;5.90;;;1.90;;
77821;SDS011;67012;53.712;10.728;2023-04-25T08:00:56;6.33;;;1.33;;
77821;SDS011;67012;53.712;10.728;2023-04-25T08:03:21;11.40;;;2.33;;
77821;SDS011;67012;53.712;10.728;2023-04-25T08:05:46;8.23;;;1.67;;
77821;SDS011;67012;53.712;10.728;2023-04-25T08:08:12;7.37;;;1.97;;
77821;SDS011;67012;53.712;10.728;2023-04-25T08:10:37;9.70;;;1.60;;
77821;SDS011;67012;53.712;10.728;2023-04-25T08:13:02;5.77;;;1.30;;
77821;SDS011;67012;53.712;10.728;2023-04-25T08:15:27;5.43;;;1.42;;
77821;SDS011;67012;53.712;10.728;2023-04-25T08:17:53;4.43;;;1.60;;
77821;SDS011;67012;53.712;10.728;2023-04-25T08:20:18;6.97;;;1.70;;
77821;SDS011;67012;53.712;10.728;2023-04-25T08:22:43;7.20;;;1.60;;
77821;SDS011;67012;53.712;10.728;2023-04-25T08:25:08;10.77;;;1.90;;
77821;SDS011;67012;53.712;10.728;2023-04-25T08:27:34;6.23;;;1.40;;
77821;SDS011;67012;53.712;10.728;2023-04-25T08:29:59;3.92;;;1.48;;
77821;SDS011;67012;53.712;10.728;2023-04-25T08:32:25;5.90;;;1.30;;
77821;SDS011;67012;53.712;10.728;2023-04-25T08:34:50;5.35;;;1.67;;
77821;SDS011;67012;53.712;10.728;2023-04-25T08:37:18;4.97;;;1.40;;
77821;SDS011;67012;53.712;10.728;2023-04-25T08:39:44;6.00;;;0.90;;
77821;SDS011;67012;53.712;10.728;2023-04-25T08:42:10;5.68;;;1.42;;
77821;SDS011;67012;53.712;10.728;2023-04-25T08:44:37;8.40;;;1.45;;
77821;SDS011;67012;53.712;10.728;2023-04-25T08:47:03;5.15;;;1.27;;
77821;SDS011;67012;53.712;10.728;2023-04-25T08:49:30;9.75;;;1.75;;
77821;SDS011;67012;53.712;10.728;2023-04-25T08:51:56;4.68;;;1.15;;
77821;SDS011;67012;53.712;10.728;2023-04-25T08:54:24;6.32;;;1.35;;
77821;SDS011;67012;53.712;10.728;2023-04-25T08:56:52;6.45;;;1.38;;
77821;SDS011;67012;53.712;10.728;2023-04-25T08:59:18;5.32;;;1.50;;
77821;SDS011;67012;53.712;10.728;2023-04-25T09:01:44;5.03;;;1.10;;
77821;SDS011;67012;53.712;10.728;2023-04-25T09:04:10;6.68;;;1.40;;
77821;SDS011;67012;53.712;10.728;2023-04-25T09:06:36;5.65;;;1.33;;
77821;SDS011;67012;53.712;10.728;2023-04-25T09:09:05;6.13;;;0.90;;
77821;SDS011;67012;53.712;10.728;2023-04-25T09:11:34;9.38;;;1.40;;
77821;SDS011;67012;53.712;10.728;2023-04-25T09:19:20;4.17;;;1.10;;
77821;SDS011;67012;53.712;10.728;2023-04-25T09:21:48;6.47;;;1.00;;
77821;SDS011;67012;53.712;10.728;2023-04-25T09:24:13;3.13;;;1.10;;
77821;SDS011;67012;53.712;10.728;2023-04-25T09:26:39;3.92;;;1.10;;
77821;SDS011;67012;53.712;10.728;2023-04-25T09:29:05;4.13;;;1.20;;
77821;SDS011;67012;53.712;10.728;2023-04-25T09:31:32;4.78;;;1.13;;
77821;SDS011;67012;53.712;10.728;2023-04-25T09:34:01;8.13;;;1.40;;
77821;SDS011;67012;53.712;10.728;2023-04-25T09:36:26;11.35;;;1.17;;
77821;SDS011;67012;53.712;10.728;2023-04-25T09:38:52;10.40;;;1.67;;
77821;SDS011;67012;53.712;10.728;2023-04-25T09:41:22;4.50;;;1.40;;
77821;SDS011;67012;53.712;10.728;2023-04-25T09:43:47;7.68;;;1.40;;
77821;SDS011;67012;53.712;10.728;2023-04-25T09:46:13;6.50;;;1.60;;
77821;SDS011;67012;53.712;10.728;2023-04-25T09:48:39;4.40;;;0.80;;
77821;SDS011;67012;53.712;10.728;2023-04-25T09:51:11;5.45;;;1.33;;
77821;SDS011;67012;53.712;10.728;2023-04-25T09:53:39;6.57;;;1.45;;
77821;SDS011;67012;53.712;10.728;2023-04-25T09:56:06;7.93;;;1.30;;
77821;SDS011;67012;53.712;10.728;2023-04-25T09:58:32;5.45;;;1.52;;
77821;SDS011;67012;53.712;10.728;2023-04-25T10:00:59;4.78;;;1.23;;
77821;SDS011;67012;53.712;10.728;2023-04-25T10:03:24;6.63;;;1.02;;
77821;SDS011;67012;53.712;10.728;2023-04-25T10:05:50;3.80;;;1.15;;
77821;SDS011;67012;53.712;10.728;2023-04-25T10:08:17;5.53;;;1.00;;
77821;SDS011;67012;53.712;10.728;2023-04-25T10:10:42;5.75;;;1.10;;
77821;SDS011;67012;53.712;10.728;2023-04-25T10:13:08;2.70;;;1.20;;
77821;SDS011;67012;53.712;10.728;2023-04-25T10:15:36;2.97;;;0.85;;
77821;SDS011;67012;53.712;10.728;2023-04-25T10:18:02;6.15;;;1.30;;
77821;SDS011;67012;53.712;10.728;2023-04-25T10:20:28;4.90;;;1.20;;
77821;SDS011;67012;53.712;10.728;2023-04-25T10:22:53;6.55;;;1.42;;
77821;SDS011;67012;53.712;10.728;2023-04-25T10:25:21;3.80;;;0.80;;
77821;SDS011;67012;53.712;10.728;2023-04-25T10:27:47;5.22;;;1.30;;
77821;SDS011;67012;53.712;10.728;2023-04-25T10:30:15;2.22;;;0.88;;
77821;SDS011;67012;53.712;10.728;2023-04-25T10:32:43;1.83;;;0.65;;
77821;SDS011;67012;53.712;10.728;2023-04-25T10:35:16;3.88;;;0.82;;
77821;SDS011;67012;53.712;10.728;2023-04-25T10:37:58;3.75;;;0.65;;
77821;SDS011;67012;53.712;10.728;2023-04-25T10:40:23;5.30;;;1.00;;
77821;SDS011;67012;53.712;10.728;2023-04-25T10:42:50;2.33;;;0.63;;
77821;SDS011;67012;53.712;10.728;2023-04-25T10:45:16;3.92;;;1.10;;
77821;SDS011;67012;53.712;10.728;2023-04-25T10:47:45;4.78;;;0.93;;
77821;SDS011;67012;53.712;10.728;2023-04-25T10:50:10;2.45;;;0.60;;
77821;SDS011;67012;53.712;10.728;2023-04-25T10:52:36;3.47;;;1.00;;
77821;SDS011;67012;53.712;10.728;2023-04-25T10:55:03;8.50;;;1.08;;
77821;SDS011;67012;53.712;10.728;2023-04-25T10:57:32;10.93;;;1.50;;
77821;SDS011;67012;53.712;10.728;2023-04-25T11:00:07;2.95;;;0.98;;
77821;SDS011;67012;53.712;10.728;2023-04-25T11:02:45;1.88;;;0.60;;
77821;SDS011;67012;53.712;10.728;2023-04-25T11:05:20;3.78;;;0.95;;
77821;SDS011;67012;53.712;10.728;2023-04-25T11:07:53;3.75;;;0.70;;
77821;SDS011;67012;53.712;10.728;2023-04-25T11:10:21;3.90;;;0.82;;
77821;SDS011;67012;53.712;10.728;2023-04-25T11:12:49;2.38;;;1.20;;
77821;SDS011;67012;53.712;10.728;2023-04-25T11:15:15;5.45;;;0.70;;
77821;SDS011;67012;53.712;10.728;2023-04-25T11:17:40;4.10;;;0.77;;
77821;SDS011;67012;53.712;10.728;2023-04-25T11:20:06;2.15;;;0.50;;
77821;SDS011;67012;53.712;10.728;2023-04-25T11:22:33;2.33;;;0.70;;
77821;SDS011;67012;53.712;10.728;2023-04-25T11:25:03;8.30;;;0.80;;
77821;SDS011;67012;53.712;10.728;2023-04-25T11:27:29;2.50;;;1.10;;
77821;SDS011;67012;53.712;10.728;2023-04-25T11:29:54;2.30;;;0.47;;
77821;SDS011;67012;53.712;10.728;2023-04-25T11:32:20;5.35;;;1.02;;
77821;SDS011;67012;53.712;10.728;2023-04-25T11:34:45;3.40;;;0.70;;
77821;SDS011;67012;53.712;10.728;2023-04-25T11:37:11;1.95;;;0.60;;
77821;SDS011;67012;53.712;10.728;2023-04-25T11:39:37;5.80;;;0.80;;
77821;SDS011;67012;53.712;10.728;2023-04-25T11:42:03;1.93;;;0.60;;
77821;SDS011;67012;53.712;10.728;2023-04-25T11:44:28;3.40;;;0.70;;
77821;SDS011;67012;53.712;10.728;2023-04-25T11:46:54;3.22;;;0.95;;
77821;SDS011;67012;53.712;10.728;2023-04-25T11:49:20;1.77;;;0.75;;
77821;SDS011;67012;53.712;10.728;2023-04-25T11:51:47;5.55;;;1.20;;
77821;SDS011;67012;53.712;10.728;2023-04-25T11:54:12;2.53;;;0.73;;
77821;SDS011;67012;53.712;10.728;2023-04-25T11:56:41;2.73;;;0.50;;
77821;SDS011;67012;53.712;10.728;2023-04-25T11:59:07;1.45;;;0.40;;
77821;SDS011;67012;53.712;10.728;2023-04-25T12:01:33;3.60;;;0.60;;
77821;SDS011;67012;53.712;10.728;2023-04-25T12:03:58;1.38;;;0.45;;
77821;SDS011;67012;53.712;10.728;2023-04-25T12:06:30;3.20;;;0.73;;
77821;SDS011;67012;53.712;10.728;2023-04-25T12:08:59;3.97;;;0.95;;
77821;SDS011;67012;53.712;10.728;2023-04-25T12:11:24;4.43;;;0.93;;
77821;SDS011;67012;53.712;10.728;2023-04-25T12:13:51;5.57;;;0.90;;
77821;SDS011;67012;53.712;10.728;2023-04-25T12:16:18;3.65;;;0.90;;
77821;SDS011;67012;53.712;10.728;2023-04-25T12:18:43;0.60;;;0.60;;
77821;SDS011;67012;53.712;10.728;2023-04-25T12:21:08;1.30;;;0.60;;
77821;SDS011;67012;53.712;10.728;2023-04-25T12:23:34;3.03;;;0.90;;
77821;SDS011;67012;53.712;10.728;2023-04-25T12:26:03;4.80;;;0.63;;
77821;SDS011;67012;53.712;10.728;2023-04-25T12:28:28;1.97;;;0.50;;
77821;SDS011;67012;53.712;10.728;2023-04-25T12:30:57;4.22;;;0.68;;
77821;SDS011;67012;53.712;10.728;2023-04-25T12:33:23;3.13;;;0.65;;
77821;SDS011;67012;53.712;10.728;2023-04-25T12:35:49;1.40;;;0.77;;
77821;SDS011;67012;53.712;10.728;2023-04-25T12:38:23;2.63;;;0.90;;
77821;SDS011;67012;53.712;10.728;2023-04-25T12:40:49;2.78;;;0.55;;
77821;SDS011;67012;53.712;10.728;2023-04-25T12:43:14;3.38;;;1.00;;
77821;SDS011;67012;53.712;10.728;2023-04-25T12:45:39;5.23;;;0.90;;
77821;SDS011;67012;53.712;10.728;2023-04-25T12:48:05;2.75;;;0.77;;
77821;SDS011;67012;53.712;10.728;2023-04-25T12:50:30;5.00;;;0.75;;
77821;SDS011;67012;53.712;10.728;2023-04-25T12:52:55;2.45;;;0.75;;
77821;SDS011;67012;53.712;10.728;2023-04-25T12:55:21;4.20;;;0.50;;
77821;SDS011;67012;53.712;10.728;2023-04-25T12:57:46;5.53;;;1.08;;
77821;SDS011;67012;53.712;10.728;2023-04-25T13:00:12;1.93;;;0.63;;
77821;SDS011;67012;53.712;10.728;2023-04-25T13:02:39;4.38;;;1.02;;
77821;SDS011;67012;53.712;10.728;2023-04-25T13:05:05;1.85;;;0.60;;
77821;SDS011;67012;53.712;10.728;2023-04-25T13:07:30;3.08;;;0.70;;
77821;SDS011;67012;53.712;10.728;2023-04-25T13:09:55;5.07;;;0.90;;
77821;SDS011;67012;53.712;10.728;2023-04-25T13:12:21;3.00;;;0.60;;
77821;SDS011;67012;53.712;10.728;2023-04-25T13:14:46;3.97;;;0.80;;
77821;SDS011;67012;53.712;10.728;2023-04-25T13:17:11;1.17;;;0.50;;
77821;SDS011;67012;53.712;10.728;2023-04-25T13:19:36;1.93;;;0.47;;
77821;SDS011;67012;53.712;10.728;2023-04-25T13:22:01;4.03;;;0.73;;
77821;SDS011;67012;53.712;10.728;2023-04-25T13:24:29;2.80;;;0.60;;
77821;SDS011;67012;53.712;10.728;2023-04-25T13:26:54;5.07;;;0.77;;
77821;SDS011;67012;53.712;10.728;2023-04-25T13:29:19;5.07;;;0.80;;
77821;SDS011;67012;53.712;10.728;2023-04-25T13:31:44;2.95;;;1.05;;
77821;SDS011;67012;53.712;10.728;2023-04-25T13:34:10;2.03;;;0.43;;
77821;SDS011;67012;53.712;10.728;2023-04-25T13:36:37;2.67;;;0.75;;
77821;SDS011;67012;53.712;10.728;2023-04-25T13:39:02;3.33;;;0.83;;
77821;SDS011;67012;53.712;10.728;2023-04-25T13:41:29;4.05;;;0.60;;
77821;SDS011;67012;53.712;10.728;2023-04-25T13:43:54;3.67;;;0.70;;
77821;SDS011;67012;53.712;10.728;2023-04-25T13:46:19;1.83;;;0.53;;
77821;SDS011;67012;53.712;10.728;2023-04-25T13:48:45;4.13;;;0.70;;
77821;SDS011;67012;53.712;10.728;2023-04-25T13:51:11;2.85;;;0.60;;
77821;SDS011;67012;53.712;10.728;2023-04-25T13:53:36;1.58;;;0.60;;
77821;SDS011;67012;53.712;10.728;2023-04-25T13:56:02;0.93;;;0.60;;
77821;SDS011;67012;53.712;10.728;2023-04-25T13:58:27;4.30;;;1.03;;
77821;SDS011;67012;53.712;10.728;2023-04-25T14:00:52;5.63;;;0.83;;
77821;SDS011;67012;53.712;10.728;2023-04-25T14:03:18;4.55;;;0.80;;
77821;SDS011;67012;53.712;10.728;2023-04-25T14:05:43;2.23;;;0.80;;
77821;SDS011;67012;53.712;10.728;2023-04-25T14:08:09;6.10;;;0.85;;
77821;SDS011;67012;53.712;10.728;2023-04-25T14:10:35;1.55;;;0.55;;
77821;SDS011;67012;53.712;10.728;2023-04-25T14:13:00;2.22;;;0.60;;
77821;SDS011;67012;53.712;10.728;2023-04-25T14:15:26;3.53;;;0.73;;
77821;SDS011;67012;53.712;10.728;2023-04-25T14:17:51;5.03;;;0.97;;
77821;SDS011;67012;53.712;10.728;2023-04-25T14:20:16;3.63;;;0.90;;
77821;SDS011;67012;53.712;10.728;2023-04-25T14:22:45;4.82;;;0.90;;
77821;SDS011;67012;53.712;10.728;2023-04-25T14:25:10;2.37;;;0.60;;
77821;SDS011;67012;53.712;10.728;2023-04-25T14:27:35;4.93;;;0.70;;
77821;SDS011;67012;53.712;10.728;2023-04-25T14:30:00;3.03;;;0.73;;
77821;SDS011;67012;53.712;10.728;2023-04-25T14:32:26;4.40;;;0.67;;
77821;SDS011;67012;53.712;10.728;2023-04-25T14:34:51;4.63;;;1.30;;
77821;SDS011;67012;53.712;10.728;2023-04-25T14:37:16;4.23;;;0.90;;
77821;SDS011;67012;53.712;10.728;2023-04-25T14:39:41;2.17;;;0.60;;
77821;SDS011;67012;53.712;10.728;2023-04-25T14:42:06;3.83;;;0.90;;
77821;SDS011;67012;53.712;10.728;2023-04-25T14:44:32;3.07;;;0.80;;
77821;SDS011;67012;53.712;10.728;2023-04-25T14:46:57;4.23;;;0.70;;
77821;SDS011;67012;53.712;10.728;2023-04-25T14:49:22;5.43;;;0.93;;
77821;SDS011;67012;53.712;10.728;2023-04-25T14:51:47;4.47;;;0.90;;
77821;SDS011;67012;53.712;10.728;2023-04-25T14:54:12;5.07;;;1.37;;
77821;SDS011;67012;53.712;10.728;2023-04-25T14:56:38;1.87;;;1.20;;
77821;SDS011;67012;53.712;10.728;2023-04-25T14:59:03;4.40;;;1.40;;
77821;SDS011;67012;53.712;10.728;2023-04-25T15:01:28;5.03;;;1.33;;
77821;SDS011;67012;53.712;10.728;2023-04-25T15:03:53;2.23;;;0.70;;
77821;SDS011;67012;53.712;10.728;2023-04-25T15:06:18;2.13;;;0.70;;
77821;SDS011;67012;53.712;10.728;2023-04-25T15:08:44;3.07;;;0.70;;
77821;SDS011;67012;53.712;10.728;2023-04-25T15:11:09;4.18;;;1.00;;
77821;SDS011;67012;53.712;10.728;2023-04-25T15:13:35;1.48;;;0.90;;
77821;SDS011;67012;53.712;10.728;2023-04-25T15:16:01;5.87;;;1.07;;
77821;SDS011;67012;53.712;10.728;2023-04-25T15:18:26;1.77;;;1.03;;
77821;SDS011;67012;53.712;10.728;2023-04-25T15:20:51;5.80;;;1.00;;
77821;SDS011;67012;53.712;10.728;2023-04-25T15:23:17;1.55;;;0.73;;
77821;SDS011;67012;53.712;10.728;2023-04-25T15:25:43;8.55;;;1.00;;
77821;SDS011;67012;53.712;10.728;2023-04-25T15:28:08;1.27;;;0.50;;
77821;SDS011;67012;53.712;10.728;2023-04-25T15:30:33;4.13;;;0.90;;
77821;SDS011;67012;53.712;10.728;2023-04-25T15:32:59;7.23;;;0.80;;
77821;SDS011;67012;53.712;10.728;2023-04-25T15:35:24;3.77;;;0.57;;
77821;SDS011;67012;53.712;10.728;2023-04-25T15:37:49;2.83;;;0.63;;
77821;SDS011;67012;53.712;10.728;2023-04-25T15:40:15;0.40;;;0.40;;
77821;SDS011;67012;53.712;10.728;2023-04-25T15:42:41;2.05;;;0.55;;
77821;SDS011;67012;53.712;10.728;2023-04-25T15:45:08;1.70;;;0.68;;
77821;SDS011;67012;53.712;10.728;2023-04-25T15:47:34;4.65;;;0.80;;
77821;SDS011;67012;53.712;10.728;2023-04-25T15:50:00;2.55;;;0.73;;
77821;SDS011;67012;53.712;10.728;2023-04-25T15:52:25;5.88;;;0.70;;
77821;SDS011;67012;53.712;10.728;2023-04-25T15:54:51;3.63;;;0.82;;
77821;SDS011;67012;53.712;10.728;2023-04-25T15:57:16;2.30;;;0.90;;
77821;SDS011;67012;53.712;10.728;2023-04-25T15:59:42;1.40;;;0.90;;
77821;SDS011;67012;53.712;10.728;2023-04-25T16:02:07;2.10;;;0.90;;
77821;SDS011;67012;53.712;10.728;2023-04-25T16:04:33;5.10;;;1.17;;
77821;SDS011;67012;53.712;10.728;2023-04-25T16:07:02;5.75;;;0.70;;
77821;SDS011;67012;53.712;10.728;2023-04-25T16:09:27;5.15;;;0.80;;
77821;SDS011;67012;53.712;10.728;2023-04-25T16:11:53;6.28;;;1.42;;
77821;SDS011;67012;53.712;10.728;2023-04-25T16:14:18;5.65;;;1.25;;
77821;SDS011;67012;53.712;10.728;2023-04-25T16:16:43;4.32;;;0.93;;
77821;SDS011;67012;53.712;10.728;2023-04-25T16:19:09;3.17;;;0.80;;
77821;SDS011;67012;53.712;10.728;2023-04-25T16:21:35;3.42;;;0.80;;
77821;SDS011;67012;53.712;10.728;2023-04-25T16:24:00;2.63;;;1.15;;
77821;SDS011;67012;53.712;10.728;2023-04-25T16:26:25;2.93;;;0.70;;
77821;SDS011;67012;53.712;10.728;2023-04-25T16:28:50;4.33;;;0.90;;
77821;SDS011;67012;53.712;10.728;2023-04-25T16:31:16;4.82;;;0.60;;
77821;SDS011;67012;53.712;10.728;2023-04-25T16:33:41;3.90;;;0.87;;
77821;SDS011;67012;53.712;10.728;2023-04-25T16:36:07;2.77;;;0.93;;
77821;SDS011;67012;53.712;10.728;2023-04-25T16:38:32;2.08;;;0.63;;
77821;SDS011;67012;53.712;10.728;2023-04-25T16:40:57;5.50;;;0.90;;
77821;SDS011;67012;53.712;10.728;2023-04-25T16:43:22;5.70;;;1.07;;
77821;SDS011;67012;53.712;10.728;2023-04-25T16:45:48;8.15;;;1.33;;
77821;SDS011;67012;53.712;10.728;2023-04-25T16:48:13;3.57;;;0.80;;
77821;SDS011;67012;53.712;10.728;2023-04-25T16:50:39;4.18;;;1.00;;
77821;SDS011;67012;53.712;10.728;2023-04-25T16:53:05;5.20;;;1.00;;
77821;SDS011;67012;53.712;10.728;2023-04-25T16:55:30;1.00;;;0.50;;
77821;SDS011;67012;53.712;10.728;2023-04-25T16:57:55;3.43;;;0.77;;
77821;SDS011;67012;53.712;10.728;2023-04-25T17:00:21;3.17;;;0.60;;
77821;SDS011;67012;53.712;10.728;2023-04-25T17:02:46;4.97;;;0.65;;
77821;SDS011;67012;53.712;10.728;2023-04-25T17:05:11;3.57;;;1.20;;
77821;SDS011;67012;53.712;10.728;2023-04-25T17:07:37;7.90;;;0.90;;
77821;SDS011;67012;53.712;10.728;2023-04-25T17:10:02;6.10;;;1.77;;
77821;SDS011;67012;53.712;10.728;2023-04-25T17:12:28;7.13;;;1.27;;
77821;SDS011;67012;53.712;10.728;2023-04-25T17:14:53;5.77;;;0.80;;
77821;SDS011;67012;53.712;10.728;2023-04-25T17:17:18;4.55;;;0.70;;
77821;SDS011;67012;53.712;10.728;2023-04-25T17:19:45;2.17;;;0.70;;
77821;SDS011;67012;53.712;10.728;2023-04-25T17:22:10;4.20;;;0.97;;
77821;SDS011;67012;53.712;10.728;2023-04-25T17:24:35;8.23;;;0.80;;
77821;SDS011;67012;53.712;10.728;2023-04-25T17:27:01;5.80;;;2.38;;
